sensor_id;sensor_type;location;lat;lon;timestamp;P1;durP1;ratioP1;P2;durP2;ratioP2
25069;SDS011;13064;48.162;11.536;2023-05-07T00:02:11;13.00;;;7.50;;
25069;SDS011;13064;48.162;11.536;2023-05-07T00:04:39;13.65;;;7.75;;
25069;SDS011;13064;48.162;11.536;2023-05-07T00:07:07;10.02;;;7.10;;
25069;SDS011;13064;48.162;11.536;2023-05-07T00:09:35;12.07;;;7.45;;
25069;SDS011;13064;48.162;11.536;2023-05-07T00:12:03;10.63;;;7.40;;
25069;SDS011;13064;48.162;11.536;2023-05-07T00:14:31;10.75;;;7.60;;
25069;SDS011;13064;48.162;11.536;2023-05-07T00:16:58;11.30;;;7.00;;
25069;SDS011;13064;48.162;11.536;2023-05-07T00:19:26;10.63;;;7.07;;
25069;SDS011;13064;48.162;11.536;2023-05-07T00:21:54;11.43;;;7.38;;
25069;SDS011;13064;48.162;11.536;2023-05-07T00:24:22;9.75;;;7.07;;
25069;SDS011;13064;48.162;11.536;2023-05-07T00:26:50;11.85;;;7.38;;
25069;SDS011;13064;48.162;11.536;2023-05-07T00:29:17;8.38;;;6.43;;
25069;SDS011;13064;48.162;11.536;2023-05-07T00:31:45;8.50;;;6.43;;
25069;SDS011;13064;48.162;11.536;2023-05-07T00:34:13;13.82;;;8.00;;
25069;SDS011;13064;48.162;11.536;2023-05-07T00:36:40;11.70;;;7.13;;
25069;SDS011;13064;48.162;11.536;2023-05-07T00:39:08;14.00;;;7.50;;
25069;SDS011;13064;48.162;11.536;2023-05-07T00:41:35;11.57;;;7.53;;
25069;SDS011;13064;48.162;11.536;2023-05-07T00:44:03;11.70;;;8.25;;
25069;SDS011;13064;48.162;11.536;2023-05-07T00:46:31;12.80;;;7.95;;
25069;SDS011;13064;48.162;11.536;2023-05-07T00:48:59;10.55;;;8.00;;
25069;SDS011;13064;48.162;11.536;2023-05-07T00:51:28;9.70;;;7.38;;
25069;SDS011;13064;48.162;11.536;2023-05-07T00:53:56;10.82;;;7.93;;
25069;SDS011;13064;48.162;11.536;2023-05-07T00:56:23;14.55;;;7.93;;
25069;SDS011;13064;48.162;11.536;2023-05-07T00:58:52;10.57;;;7.63;;
25069;SDS011;13064;48.162;11.536;2023-05-07T01:01:19;9.80;;;7.82;;
25069;SDS011;13064;48.162;11.536;2023-05-07T01:03:47;11.57;;;7.85;;
25069;SDS011;13064;48.162;11.536;2023-05-07T01:06:16;12.52;;;8.20;;
25069;SDS011;13064;48.162;11.536;2023-05-07T01:08:44;11.93;;;8.45;;
25069;SDS011;13064;48.162;11.536;2023-05-07T01:11:13;10.18;;;8.07;;
25069;SDS011;13064;48.162;11.536;2023-05-07T01:13:40;10.77;;;7.30;;
25069;SDS011;13064;48.162;11.536;2023-05-07T01:16:08;13.88;;;7.93;;
25069;SDS011;13064;48.162;11.536;2023-05-07T01:18:36;13.98;;;8.80;;
25069;SDS011;13064;48.162;11.536;2023-05-07T01:21:04;10.90;;;8.18;;
25069;SDS011;13064;48.162;11.536;2023-05-07T01:23:32;13.43;;;8.55;;
25069;SDS011;13064;48.162;11.536;2023-05-07T01:26:02;11.85;;;8.18;;
25069;SDS011;13064;48.162;11.536;2023-05-07T01:28:32;11.38;;;8.27;;
25069;SDS011;13064;48.162;11.536;2023-05-07T01:31:01;11.77;;;7.90;;
25069;SDS011;13064;48.162;11.536;2023-05-07T01:33:31;13.98;;;7.90;;
25069;SDS011;13064;48.162;11.536;2023-05-07T01:36:00;12.82;;;8.70;;
25069;SDS011;13064;48.162;11.536;2023-05-07T01:38:30;11.23;;;8.13;;
25069;SDS011;13064;48.162;11.536;2023-05-07T01:40:58;11.73;;;8.18;;
25069;SDS011;13064;48.162;11.536;2023-05-07T01:43:25;11.90;;;8.00;;
25069;SDS011;13064;48.162;11.536;2023-05-07T01:45:53;11.88;;;7.57;;
25069;SDS011;13064;48.162;11.536;2023-05-07T01:48:21;10.77;;;7.82;;
25069;SDS011;13064;48.162;11.536;2023-05-07T01:50:49;13.20;;;8.45;;
25069;SDS011;13064;48.162;11.536;2023-05-07T01:53:17;11.05;;;8.05;;
25069;SDS011;13064;48.162;11.536;2023-05-07T01:55:45;12.93;;;8.25;;
25069;SDS011;13064;48.162;11.536;2023-05-07T01:58:14;10.15;;;7.78;;
25069;SDS011;13064;48.162;11.536;2023-05-07T02:00:41;12.32;;;8.15;;
25069;SDS011;13064;48.162;11.536;2023-05-07T02:03:09;15.25;;;8.48;;
25069;SDS011;13064;48.162;11.536;2023-05-07T02:05:47;11.77;;;8.48;;
25069;SDS011;13064;48.162;11.536;2023-05-07T02:08:35;11.35;;;7.72;;
25069;SDS011;13064;48.162;11.536;2023-05-07T02:11:03;9.68;;;7.68;;
25069;SDS011;13064;48.162;11.536;2023-05-07T02:13:32;12.15;;;8.23;;
25069;SDS011;13064;48.162;11.536;2023-05-07T02:16:00;11.93;;;7.93;;
25069;SDS011;13064;48.162;11.536;2023-05-07T02:18:28;12.07;;;7.13;;
25069;SDS011;13064;48.162;11.536;2023-05-07T02:20:55;10.77;;;7.30;;
25069;SDS011;13064;48.162;11.536;2023-05-07T02:23:23;13.55;;;7.20;;
25069;SDS011;13064;48.162;11.536;2023-05-07T02:25:51;9.77;;;7.00;;
25069;SDS011;13064;48.162;11.536;2023-05-07T02:28:18;10.07;;;7.38;;
25069;SDS011;13064;48.162;11.536;2023-05-07T02:30:59;10.07;;;7.47;;
25069;SDS011;13064;48.162;11.536;2023-05-07T02:33:28;9.93;;;6.95;;
25069;SDS011;13064;48.162;11.536;2023-05-07T02:35:56;12.07;;;7.03;;
25069;SDS011;13064;48.162;11.536;2023-05-07T02:38:24;11.23;;;7.63;;
25069;SDS011;13064;48.162;11.536;2023-05-07T02:40:52;9.88;;;7.25;;
25069;SDS011;13064;48.162;11.536;2023-05-07T02:43:19;10.43;;;7.82;;
25069;SDS011;13064;48.162;11.536;2023-05-07T02:45:48;9.23;;;7.57;;
25069;SDS011;13064;48.162;11.536;2023-05-07T02:48:16;10.00;;;8.00;;
25069;SDS011;13064;48.162;11.536;2023-05-07T02:50:44;12.38;;;7.35;;
25069;SDS011;13064;48.162;11.536;2023-05-07T02:53:13;11.43;;;7.22;;
25069;SDS011;13064;48.162;11.536;2023-05-07T02:55:41;9.27;;;6.55;;
25069;SDS011;13064;48.162;11.536;2023-05-07T02:58:08;9.85;;;7.47;;
25069;SDS011;13064;48.162;11.536;2023-05-07T03:00:38;9.23;;;7.07;;
25069;SDS011;13064;48.162;11.536;2023-05-07T03:03:25;12.38;;;7.82;;
25069;SDS011;13064;48.162;11.536;2023-05-07T03:05:53;13.38;;;7.07;;
25069;SDS011;13064;48.162;11.536;2023-05-07T03:08:21;8.90;;;6.78;;
25069;SDS011;13064;48.162;11.536;2023-05-07T03:10:48;9.05;;;7.38;;
25069;SDS011;13064;48.162;11.536;2023-05-07T03:13:16;9.18;;;7.00;;
25069;SDS011;13064;48.162;11.536;2023-05-07T03:15:44;11.73;;;7.05;;
25069;SDS011;13064;48.162;11.536;2023-05-07T03:18:12;8.43;;;6.85;;
25069;SDS011;13064;48.162;11.536;2023-05-07T03:20:40;11.32;;;7.20;;
25069;SDS011;13064;48.162;11.536;2023-05-07T03:23:07;11.57;;;7.00;;
25069;SDS011;13064;48.162;11.536;2023-05-07T03:25:35;9.63;;;6.47;;
25069;SDS011;13064;48.162;11.536;2023-05-07T03:28:03;8.00;;;6.63;;
25069;SDS011;13064;48.162;11.536;2023-05-07T03:30:42;8.88;;;7.07;;
25069;SDS011;13064;48.162;11.536;2023-05-07T03:33:10;9.25;;;6.97;;
25069;SDS011;13064;48.162;11.536;2023-05-07T03:35:38;10.00;;;6.85;;
25069;SDS011;13064;48.162;11.536;2023-05-07T03:38:06;9.25;;;6.82;;
25069;SDS011;13064;48.162;11.536;2023-05-07T03:40:36;8.98;;;6.47;;
25069;SDS011;13064;48.162;11.536;2023-05-07T03:43:04;11.35;;;6.82;;
25069;SDS011;13064;48.162;11.536;2023-05-07T03:45:34;8.18;;;6.75;;
25069;SDS011;13064;48.162;11.536;2023-05-07T03:48:28;9.18;;;7.00;;
25069;SDS011;13064;48.162;11.536;2023-05-07T03:50:58;9.45;;;6.97;;
25069;SDS011;13064;48.162;11.536;2023-05-07T03:53:30;10.82;;;6.50;;
25069;SDS011;13064;48.162;11.536;2023-05-07T03:55:57;11.10;;;6.78;;
25069;SDS011;13064;48.162;11.536;2023-05-07T03:58:26;10.57;;;7.30;;
25069;SDS011;13064;48.162;11.536;2023-05-07T04:00:57;10.85;;;7.20;;
25069;SDS011;13064;48.162;11.536;2023-05-07T04:03:27;8.20;;;6.60;;
25069;SDS011;13064;48.162;11.536;2023-05-07T04:05:57;9.15;;;7.20;;
25069;SDS011;13064;48.162;11.536;2023-05-07T04:08:25;8.48;;;7.05;;
25069;SDS011;13064;48.162;11.536;2023-05-07T04:10:54;9.35;;;6.97;;
25069;SDS011;13064;48.162;11.536;2023-05-07T04:13:23;8.35;;;7.20;;
25069;SDS011;13064;48.162;11.536;2023-05-07T04:15:51;9.90;;;6.93;;
25069;SDS011;13064;48.162;11.536;2023-05-07T04:18:19;9.38;;;6.80;;
25069;SDS011;13064;48.162;11.536;2023-05-07T04:20:48;8.23;;;6.68;;
25069;SDS011;13064;48.162;11.536;2023-05-07T04:23:16;9.50;;;6.25;;
25069;SDS011;13064;48.162;11.536;2023-05-07T04:25:44;7.97;;;6.35;;
25069;SDS011;13064;48.162;11.536;2023-05-07T04:28:23;10.85;;;6.93;;
25069;SDS011;13064;48.162;11.536;2023-05-07T04:30:51;8.15;;;6.82;;
25069;SDS011;13064;48.162;11.536;2023-05-07T04:33:20;9.02;;;6.20;;
25069;SDS011;13064;48.162;11.536;2023-05-07T04:35:49;9.95;;;6.63;;
25069;SDS011;13064;48.162;11.536;2023-05-07T04:38:17;8.15;;;6.40;;
25069;SDS011;13064;48.162;11.536;2023-05-07T04:40:46;7.78;;;6.55;;
25069;SDS011;13064;48.162;11.536;2023-05-07T04:43:18;7.80;;;6.35;;
25069;SDS011;13064;48.162;11.536;2023-05-07T04:45:50;7.97;;;6.22;;
25069;SDS011;13064;48.162;11.536;2023-05-07T04:48:19;10.02;;;6.95;;
25069;SDS011;13064;48.162;11.536;2023-05-07T04:50:49;8.10;;;6.03;;
25069;SDS011;13064;48.162;11.536;2023-05-07T04:53:17;11.70;;;6.65;;
25069;SDS011;13064;48.162;11.536;2023-05-07T04:55:46;7.65;;;6.68;;
25069;SDS011;13064;48.162;11.536;2023-05-07T04:58:14;7.97;;;6.38;;
25069;SDS011;13064;48.162;11.536;2023-05-07T05:00:43;8.55;;;6.35;;
25069;SDS011;13064;48.162;11.536;2023-05-07T05:03:10;7.30;;;6.40;;
25069;SDS011;13064;48.162;11.536;2023-05-07T05:05:39;7.55;;;6.13;;
25069;SDS011;13064;48.162;11.536;2023-05-07T05:08:06;8.52;;;6.13;;
25069;SDS011;13064;48.162;11.536;2023-05-07T05:10:37;9.13;;;5.57;;
25069;SDS011;13064;48.162;11.536;2023-05-07T05:13:05;8.23;;;6.07;;
25069;SDS011;13064;48.162;11.536;2023-05-07T05:15:33;9.23;;;6.57;;
25069;SDS011;13064;48.162;11.536;2023-05-07T05:18:02;8.77;;;6.28;;
25069;SDS011;13064;48.162;11.536;2023-05-07T05:20:30;7.07;;;5.75;;
25069;SDS011;13064;48.162;11.536;2023-05-07T05:22:58;7.47;;;6.22;;
25069;SDS011;13064;48.162;11.536;2023-05-07T05:25:25;8.27;;;6.35;;
25069;SDS011;13064;48.162;11.536;2023-05-07T05:27:55;9.75;;;6.05;;
25069;SDS011;13064;48.162;11.536;2023-05-07T05:30:23;8.52;;;6.25;;
25069;SDS011;13064;48.162;11.536;2023-05-07T05:32:51;7.05;;;5.65;;
25069;SDS011;13064;48.162;11.536;2023-05-07T05:35:19;6.97;;;5.53;;
25069;SDS011;13064;48.162;11.536;2023-05-07T05:37:46;7.75;;;5.78;;
25069;SDS011;13064;48.162;11.536;2023-05-07T05:40:16;6.38;;;5.10;;
25069;SDS011;13064;48.162;11.536;2023-05-07T05:42:43;6.22;;;4.95;;
25069;SDS011;13064;48.162;11.536;2023-05-07T05:45:11;6.20;;;5.03;;
25069;SDS011;13064;48.162;11.536;2023-05-07T05:47:39;7.07;;;5.25;;
25069;SDS011;13064;48.162;11.536;2023-05-07T05:50:07;6.25;;;5.57;;
25069;SDS011;13064;48.162;11.536;2023-05-07T05:52:36;8.23;;;4.97;;
25069;SDS011;13064;48.162;11.536;2023-05-07T05:55:04;5.88;;;4.55;;
25069;SDS011;13064;48.162;11.536;2023-05-07T05:57:31;7.75;;;4.63;;
25069;SDS011;13064;48.162;11.536;2023-05-07T06:00:00;7.47;;;4.07;;
25069;SDS011;13064;48.162;11.536;2023-05-07T06:02:29;5.00;;;3.95;;
25069;SDS011;13064;48.162;11.536;2023-05-07T06:04:57;9.00;;;3.72;;
25069;SDS011;13064;48.162;11.536;2023-05-07T06:07:24;9.15;;;4.30;;
25069;SDS011;13064;48.162;11.536;2023-05-07T06:09:52;5.32;;;3.90;;
25069;SDS011;13064;48.162;11.536;2023-05-07T06:12:20;5.38;;;3.50;;
25069;SDS011;13064;48.162;11.536;2023-05-07T06:14:48;6.00;;;4.10;;
25069;SDS011;13064;48.162;11.536;2023-05-07T06:17:16;3.75;;;3.38;;
25069;SDS011;13064;48.162;11.536;2023-05-07T06:19:49;6.50;;;4.03;;
25069;SDS011;13064;48.162;11.536;2023-05-07T06:22:18;8.05;;;3.90;;
25069;SDS011;13064;48.162;11.536;2023-05-07T06:24:46;5.00;;;3.80;;
25069;SDS011;13064;48.162;11.536;2023-05-07T06:27:14;3.90;;;3.50;;
25069;SDS011;13064;48.162;11.536;2023-05-07T06:29:42;6.55;;;3.47;;
25069;SDS011;13064;48.162;11.536;2023-05-07T06:32:14;4.82;;;3.78;;
25069;SDS011;13064;48.162;11.536;2023-05-07T06:34:43;5.28;;;3.45;;
25069;SDS011;13064;48.162;11.536;2023-05-07T06:37:12;4.63;;;3.20;;
25069;SDS011;13064;48.162;11.536;2023-05-07T06:39:52;4.25;;;2.83;;
25069;SDS011;13064;48.162;11.536;2023-05-07T06:42:19;3.22;;;2.88;;
25069;SDS011;13064;48.162;11.536;2023-05-07T06:44:48;3.38;;;2.50;;
25069;SDS011;13064;48.162;11.536;2023-05-07T06:47:17;7.32;;;3.08;;
25069;SDS011;13064;48.162;11.536;2023-05-07T06:49:49;4.47;;;2.58;;
25069;SDS011;13064;48.162;11.536;2023-05-07T06:52:20;4.13;;;2.47;;
25069;SDS011;13064;48.162;11.536;2023-05-07T06:54:49;4.70;;;2.20;;
25069;SDS011;13064;48.162;11.536;2023-05-07T06:57:19;3.92;;;2.60;;
25069;SDS011;13064;48.162;11.536;2023-05-07T06:59:47;4.10;;;2.67;;
25069;SDS011;13064;48.162;11.536;2023-05-07T07:02:15;3.95;;;2.83;;
25069;SDS011;13064;48.162;11.536;2023-05-07T07:04:45;4.30;;;2.42;;
25069;SDS011;13064;48.162;11.536;2023-05-07T07:07:13;4.45;;;2.63;;
25069;SDS011;13064;48.162;11.536;2023-05-07T07:09:43;6.63;;;2.60;;
25069;SDS011;13064;48.162;11.536;2023-05-07T07:12:14;2.95;;;2.30;;
25069;SDS011;13064;48.162;11.536;2023-05-07T07:14:42;2.63;;;2.40;;
25069;SDS011;13064;48.162;11.536;2023-05-07T07:17:11;4.03;;;2.30;;
25069;SDS011;13064;48.162;11.536;2023-05-07T07:19:39;3.92;;;2.35;;
25069;SDS011;13064;48.162;11.536;2023-05-07T07:22:07;4.32;;;2.30;;
25069;SDS011;13064;48.162;11.536;2023-05-07T07:24:35;3.10;;;2.50;;
25069;SDS011;13064;48.162;11.536;2023-05-07T07:27:05;3.30;;;2.47;;
25069;SDS011;13064;48.162;11.536;2023-05-07T07:29:34;4.68;;;2.10;;
25069;SDS011;13064;48.162;11.536;2023-05-07T07:32:02;3.58;;;2.30;;
25069;SDS011;13064;48.162;11.536;2023-05-07T07:34:31;4.30;;;2.70;;
25069;SDS011;13064;48.162;11.536;2023-05-07T07:37:00;3.47;;;2.17;;
25069;SDS011;13064;48.162;11.536;2023-05-07T07:39:33;3.42;;;2.30;;
25069;SDS011;13064;48.162;11.536;2023-05-07T07:42:02;3.30;;;2.50;;
25069;SDS011;13064;48.162;11.536;2023-05-07T07:44:30;4.18;;;2.55;;
25069;SDS011;13064;48.162;11.536;2023-05-07T07:47:03;2.83;;;2.40;;
25069;SDS011;13064;48.162;11.536;2023-05-07T07:49:32;4.30;;;2.45;;
25069;SDS011;13064;48.162;11.536;2023-05-07T07:52:03;3.30;;;2.60;;
25069;SDS011;13064;48.162;11.536;2023-05-07T07:54:33;3.50;;;2.55;;
25069;SDS011;13064;48.162;11.536;2023-05-07T07:57:01;3.25;;;2.35;;
25069;SDS011;13064;48.162;11.536;2023-05-07T07:59:31;5.10;;;2.63;;
25069;SDS011;13064;48.162;11.536;2023-05-07T08:01:59;5.45;;;2.70;;
25069;SDS011;13064;48.162;11.536;2023-05-07T08:04:28;3.55;;;2.70;;
25069;SDS011;13064;48.162;11.536;2023-05-07T08:09:30;4.22;;;2.65;;
25069;SDS011;13064;48.162;11.536;2023-05-07T08:11:59;4.18;;;2.60;;
25069;SDS011;13064;48.162;11.536;2023-05-07T08:14:30;4.18;;;2.65;;
25069;SDS011;13064;48.162;11.536;2023-05-07T08:16:59;4.75;;;2.72;;
25069;SDS011;13064;48.162;11.536;2023-05-07T08:19:27;4.15;;;2.83;;
25069;SDS011;13064;48.162;11.536;2023-05-07T08:21:55;3.65;;;2.83;;
25069;SDS011;13064;48.162;11.536;2023-05-07T08:24:24;5.32;;;2.45;;
25069;SDS011;13064;48.162;11.536;2023-05-07T08:26:52;2.95;;;2.70;;
25069;SDS011;13064;48.162;11.536;2023-05-07T08:29:20;4.25;;;2.20;;
25069;SDS011;13064;48.162;11.536;2023-05-07T08:31:48;3.33;;;2.47;;
25069;SDS011;13064;48.162;11.536;2023-05-07T08:34:15;4.45;;;2.78;;
25069;SDS011;13064;48.162;11.536;2023-05-07T08:36:46;2.67;;;2.00;;
25069;SDS011;13064;48.162;11.536;2023-05-07T08:39:17;6.22;;;2.33;;
25069;SDS011;13064;48.162;11.536;2023-05-07T08:41:48;4.13;;;2.30;;
25069;SDS011;13064;48.162;11.536;2023-05-07T08:44:15;3.78;;;2.45;;
25069;SDS011;13064;48.162;11.536;2023-05-07T08:46:45;2.83;;;2.30;;
25069;SDS011;13064;48.162;11.536;2023-05-07T08:49:16;4.28;;;2.25;;
25069;SDS011;13064;48.162;11.536;2023-05-07T08:51:45;3.28;;;2.25;;
25069;SDS011;13064;48.162;11.536;2023-05-07T08:54:15;2.85;;;2.08;;
25069;SDS011;13064;48.162;11.536;2023-05-07T08:56:44;4.03;;;2.63;;
25069;SDS011;13064;48.162;11.536;2023-05-07T08:59:12;3.40;;;2.15;;
25069;SDS011;13064;48.162;11.536;2023-05-07T09:01:41;3.53;;;2.40;;
25069;SDS011;13064;48.162;11.536;2023-05-07T09:04:10;5.22;;;2.33;;
25069;SDS011;13064;48.162;11.536;2023-05-07T09:06:40;2.10;;;1.80;;
25069;SDS011;13064;48.162;11.536;2023-05-07T09:09:10;5.55;;;2.85;;
25069;SDS011;13064;48.162;11.536;2023-05-07T09:11:41;3.22;;;2.50;;
25069;SDS011;13064;48.162;11.536;2023-05-07T09:14:10;4.18;;;2.40;;
25069;SDS011;13064;48.162;11.536;2023-05-07T09:16:41;2.63;;;1.90;;
25069;SDS011;13064;48.162;11.536;2023-05-07T09:19:09;4.68;;;2.58;;
25069;SDS011;13064;48.162;11.536;2023-05-07T09:21:42;7.75;;;3.30;;
25069;SDS011;13064;48.162;11.536;2023-05-07T09:24:11;3.50;;;2.65;;
25069;SDS011;13064;48.162;11.536;2023-05-07T09:26:40;6.85;;;2.20;;
25069;SDS011;13064;48.162;11.536;2023-05-07T09:29:09;4.32;;;2.25;;
25069;SDS011;13064;48.162;11.536;2023-05-07T09:31:38;4.15;;;2.20;;
25069;SDS011;13064;48.162;11.536;2023-05-07T09:34:10;5.15;;;2.15;;
25069;SDS011;13064;48.162;11.536;2023-05-07T09:36:40;3.08;;;2.00;;
25069;SDS011;13064;48.162;11.536;2023-05-07T09:39:08;2.45;;;1.83;;
25069;SDS011;13064;48.162;11.536;2023-05-07T09:41:42;2.92;;;1.80;;
25069;SDS011;13064;48.162;11.536;2023-05-07T09:44:16;3.15;;;2.28;;
25069;SDS011;13064;48.162;11.536;2023-05-07T09:46:51;4.03;;;2.35;;
25069;SDS011;13064;48.162;11.536;2023-05-07T09:49:28;4.25;;;2.35;;
25069;SDS011;13064;48.162;11.536;2023-05-07T09:52:02;3.03;;;2.20;;
25069;SDS011;13064;48.162;11.536;2023-05-07T09:54:34;5.38;;;2.05;;
25069;SDS011;13064;48.162;11.536;2023-05-07T09:57:05;3.00;;;2.17;;
25069;SDS011;13064;48.162;11.536;2023-05-07T09:59:33;4.15;;;2.10;;
25069;SDS011;13064;48.162;11.536;2023-05-07T10:02:04;2.55;;;2.00;;
25069;SDS011;13064;48.162;11.536;2023-05-07T10:04:39;3.45;;;1.80;;
25069;SDS011;13064;48.162;11.536;2023-05-07T10:07:08;3.60;;;1.83;;
25069;SDS011;13064;48.162;11.536;2023-05-07T10:09:36;3.85;;;1.73;;
25069;SDS011;13064;48.162;11.536;2023-05-07T10:12:10;2.42;;;1.50;;
25069;SDS011;13064;48.162;11.536;2023-05-07T10:14:38;1.75;;;1.38;;
25069;SDS011;13064;48.162;11.536;2023-05-07T10:17:06;1.55;;;1.40;;
25069;SDS011;13064;48.162;11.536;2023-05-07T10:19:35;3.45;;;1.50;;
25069;SDS011;13064;48.162;11.536;2023-05-07T10:22:05;2.60;;;1.60;;
25069;SDS011;13064;48.162;11.536;2023-05-07T10:24:39;2.50;;;1.50;;
25069;SDS011;13064;48.162;11.536;2023-05-07T10:27:12;2.55;;;1.30;;
25069;SDS011;13064;48.162;11.536;2023-05-07T10:35:06;3.22;;;1.42;;
25069;SDS011;13064;48.162;11.536;2023-05-07T10:37:37;1.88;;;1.30;;
25069;SDS011;13064;48.162;11.536;2023-05-07T10:40:05;2.92;;;1.10;;
25069;SDS011;13064;48.162;11.536;2023-05-07T10:42:34;1.58;;;0.90;;
25069;SDS011;13064;48.162;11.536;2023-05-07T10:45:14;1.17;;;0.90;;
25069;SDS011;13064;48.162;11.536;2023-05-07T10:51:17;3.47;;;1.27;;
25069;SDS011;13064;48.162;11.536;2023-05-07T10:53:42;1.20;;;1.10;;
25069;SDS011;13064;48.162;11.536;2023-05-07T10:58:50;1.65;;;1.20;;
25069;SDS011;13064;48.162;11.536;2023-05-07T11:04:14;2.65;;;1.10;;
25069;SDS011;13064;48.162;11.536;2023-05-07T11:09:54;2.05;;;1.35;;
25069;SDS011;13064;48.162;11.536;2023-05-07T11:15:11;2.65;;;1.45;;
25069;SDS011;13064;48.162;11.536;2023-05-07T11:17:52;4.15;;;1.45;;
25069;SDS011;13064;48.162;11.536;2023-05-07T11:21:07;6.95;;;1.40;;
25069;SDS011;13064;48.162;11.536;2023-05-07T11:26:18;5.65;;;1.52;;
25069;SDS011;13064;48.162;11.536;2023-05-07T11:28:47;2.78;;;1.60;;
25069;SDS011;13064;48.162;11.536;2023-05-07T11:31:14;3.40;;;1.58;;
25069;SDS011;13064;48.162;11.536;2023-05-07T11:33:48;3.58;;;1.70;;
25069;SDS011;13064;48.162;11.536;2023-05-07T11:36:19;3.55;;;1.67;;
25069;SDS011;13064;48.162;11.536;2023-05-07T11:38:49;1.67;;;1.33;;
25069;SDS011;13064;48.162;11.536;2023-05-07T11:41:17;4.10;;;1.60;;
25069;SDS011;13064;48.162;11.536;2023-05-07T11:43:58;2.20;;;1.58;;
25069;SDS011;13064;48.162;11.536;2023-05-07T11:46:27;3.97;;;1.40;;
25069;SDS011;13064;48.162;11.536;2023-05-07T11:48:55;1.60;;;1.27;;
25069;SDS011;13064;48.162;11.536;2023-05-07T11:51:23;3.72;;;1.60;;
25069;SDS011;13064;48.162;11.536;2023-05-07T11:53:52;2.28;;;1.33;;
25069;SDS011;13064;48.162;11.536;2023-05-07T11:56:20;1.67;;;1.50;;
25069;SDS011;13064;48.162;11.536;2023-05-07T11:58:48;2.75;;;1.60;;
25069;SDS011;13064;48.162;11.536;2023-05-07T12:01:17;2.88;;;1.52;;
25069;SDS011;13064;48.162;11.536;2023-05-07T12:03:45;2.95;;;1.58;;
25069;SDS011;13064;48.162;11.536;2023-05-07T12:06:14;4.00;;;1.45;;
25069;SDS011;13064;48.162;11.536;2023-05-07T12:08:42;6.78;;;1.50;;
25069;SDS011;13064;48.162;11.536;2023-05-07T12:11:14;2.90;;;1.83;;
25069;SDS011;13064;48.162;11.536;2023-05-07T12:13:43;1.60;;;1.40;;
25069;SDS011;13064;48.162;11.536;2023-05-07T12:16:12;1.90;;;1.20;;
25069;SDS011;13064;48.162;11.536;2023-05-07T12:18:39;3.83;;;1.50;;
25069;SDS011;13064;48.162;11.536;2023-05-07T12:21:07;2.58;;;1.60;;
25069;SDS011;13064;48.162;11.536;2023-05-07T12:23:35;2.58;;;1.20;;
25069;SDS011;13064;48.162;11.536;2023-05-07T12:26:03;4.35;;;1.40;;
25069;SDS011;13064;48.162;11.536;2023-05-07T12:28:36;2.90;;;1.40;;
25069;SDS011;13064;48.162;11.536;2023-05-07T12:31:05;2.88;;;1.45;;
25069;SDS011;13064;48.162;11.536;2023-05-07T12:33:33;3.60;;;1.75;;
25069;SDS011;13064;48.162;11.536;2023-05-07T12:36:05;4.32;;;1.40;;
25069;SDS011;13064;48.162;11.536;2023-05-07T12:38:39;2.58;;;1.38;;
25069;SDS011;13064;48.162;11.536;2023-05-07T12:41:08;4.20;;;1.50;;
25069;SDS011;13064;48.162;11.536;2023-05-07T12:43:36;2.03;;;1.48;;
25069;SDS011;13064;48.162;11.536;2023-05-07T12:46:05;1.67;;;1.40;;
25069;SDS011;13064;48.162;11.536;2023-05-07T12:48:33;2.40;;;1.40;;
25069;SDS011;13064;48.162;11.536;2023-05-07T12:51:01;3.03;;;1.40;;
25069;SDS011;13064;48.162;11.536;2023-05-07T12:53:29;2.15;;;1.52;;
25069;SDS011;13064;48.162;11.536;2023-05-07T12:55:58;1.67;;;1.33;;
25069;SDS011;13064;48.162;11.536;2023-05-07T12:58:27;1.48;;;1.35;;
25069;SDS011;13064;48.162;11.536;2023-05-07T13:00:55;3.20;;;1.55;;
25069;SDS011;13064;48.162;11.536;2023-05-07T13:03:27;2.90;;;1.50;;
25069;SDS011;13064;48.162;11.536;2023-05-07T13:05:56;2.70;;;1.30;;
25069;SDS011;13064;48.162;11.536;2023-05-07T13:08:29;3.28;;;1.42;;
25069;SDS011;13064;48.162;11.536;2023-05-07T13:10:57;2.00;;;1.42;;
25069;SDS011;13064;48.162;11.536;2023-05-07T13:13:26;2.28;;;1.02;;
25069;SDS011;13064;48.162;11.536;2023-05-07T13:15:58;2.92;;;1.20;;
25069;SDS011;13064;48.162;11.536;2023-05-07T13:18:25;2.75;;;1.20;;
25069;SDS011;13064;48.162;11.536;2023-05-07T13:20:53;2.05;;;0.90;;
25069;SDS011;13064;48.162;11.536;2023-05-07T13:23:21;1.40;;;1.30;;
25069;SDS011;13064;48.162;11.536;2023-05-07T13:25:49;1.23;;;1.02;;
25069;SDS011;13064;48.162;11.536;2023-05-07T13:28:17;1.85;;;1.20;;
25069;SDS011;13064;48.162;11.536;2023-05-07T13:30:44;3.65;;;1.02;;
25069;SDS011;13064;48.162;11.536;2023-05-07T13:33:12;4.20;;;1.40;;
25069;SDS011;13064;48.162;11.536;2023-05-07T13:35:40;1.88;;;1.10;;
25069;SDS011;13064;48.162;11.536;2023-05-07T13:38:08;1.38;;;1.00;;
25069;SDS011;13064;48.162;11.536;2023-05-07T13:40:35;1.75;;;1.30;;
25069;SDS011;13064;48.162;11.536;2023-05-07T13:43:05;1.08;;;0.95;;
25069;SDS011;13064;48.162;11.536;2023-05-07T13:45:33;1.27;;;1.17;;
25069;SDS011;13064;48.162;11.536;2023-05-07T13:48:00;2.38;;;1.40;;
25069;SDS011;13064;48.162;11.536;2023-05-07T13:50:28;2.13;;;1.30;;
25069;SDS011;13064;48.162;11.536;2023-05-07T13:52:56;3.58;;;1.60;;
25069;SDS011;13064;48.162;11.536;2023-05-07T13:55:24;1.73;;;1.35;;
25069;SDS011;13064;48.162;11.536;2023-05-07T13:57:58;4.68;;;1.48;;
25069;SDS011;13064;48.162;11.536;2023-05-07T14:00:27;2.30;;;1.60;;
25069;SDS011;13064;48.162;11.536;2023-05-07T14:02:55;1.85;;;1.50;;
25069;SDS011;13064;48.162;11.536;2023-05-07T14:05:23;2.45;;;1.50;;
25069;SDS011;13064;48.162;11.536;2023-05-07T14:07:51;2.35;;;1.52;;
25069;SDS011;13064;48.162;11.536;2023-05-07T14:10:19;3.13;;;1.50;;
25069;SDS011;13064;48.162;11.536;2023-05-07T14:12:46;2.67;;;1.58;;
25069;SDS011;13064;48.162;11.536;2023-05-07T14:15:14;2.05;;;1.50;;
25069;SDS011;13064;48.162;11.536;2023-05-07T14:17:43;2.83;;;1.55;;
25069;SDS011;13064;48.162;11.536;2023-05-07T14:20:11;2.10;;;1.33;;
25069;SDS011;13064;48.162;11.536;2023-05-07T14:22:39;2.25;;;1.50;;
25069;SDS011;13064;48.162;11.536;2023-05-07T14:25:07;2.17;;;1.60;;
25069;SDS011;13064;48.162;11.536;2023-05-07T14:27:36;2.70;;;1.45;;
25069;SDS011;13064;48.162;11.536;2023-05-07T14:30:04;2.65;;;1.73;;
25069;SDS011;13064;48.162;11.536;2023-05-07T14:32:32;3.00;;;1.50;;
25069;SDS011;13064;48.162;11.536;2023-05-07T14:35:00;5.07;;;1.80;;
25069;SDS011;13064;48.162;11.536;2023-05-07T14:37:27;2.78;;;1.80;;
25069;SDS011;13064;48.162;11.536;2023-05-07T14:39:55;2.55;;;2.13;;
25069;SDS011;13064;48.162;11.536;2023-05-07T14:42:22;4.85;;;2.25;;
25069;SDS011;13064;48.162;11.536;2023-05-07T14:44:50;4.28;;;2.08;;
25069;SDS011;13064;48.162;11.536;2023-05-07T14:47:19;2.67;;;1.80;;
25069;SDS011;13064;48.162;11.536;2023-05-07T14:49:46;3.33;;;1.75;;
25069;SDS011;13064;48.162;11.536;2023-05-07T14:52:14;1.83;;;1.60;;
25069;SDS011;13064;48.162;11.536;2023-05-07T14:54:42;2.85;;;1.73;;
25069;SDS011;13064;48.162;11.536;2023-05-07T14:57:10;3.67;;;1.90;;
25069;SDS011;13064;48.162;11.536;2023-05-07T14:59:42;3.10;;;1.58;;
25069;SDS011;13064;48.162;11.536;2023-05-07T15:02:11;4.53;;;1.70;;
25069;SDS011;13064;48.162;11.536;2023-05-07T15:04:38;2.95;;;1.95;;
25069;SDS011;13064;48.162;11.536;2023-05-07T15:07:12;4.07;;;1.77;;
25069;SDS011;13064;48.162;11.536;2023-05-07T15:09:43;2.58;;;2.10;;